createdAt,value
2022-07-30T00:02:38.433Z,17.08
2022-07-30T00:05:25.464Z,16.92
2022-07-30T00:08:12.559Z,16.95
2022-07-30T00:10:59.513Z,16.63
2022-07-30T00:13:46.462Z,16.46
2022-07-30T00:16:33.597Z,16.73
2022-07-30T00:19:20.803Z,16.84
2022-07-30T00:22:09.608Z,16.92
2022-07-30T00:24:56.593Z,17.12
2022-07-30T00:27:44.422Z,16.92
2022-07-30T00:30:31.474Z,16.89
2022-07-30T00:33:18.471Z,16.67
2022-07-30T00:36:05.695Z,16.81
2022-07-30T00:38:52.755Z,16.96
2022-07-30T00:42:03.430Z,16.91
2022-07-30T00:44:50.469Z,16.74
2022-07-30T00:47:38.094Z,16.72
2022-07-30T00:50:25.065Z,16.61
2022-07-30T00:53:12.087Z,16.58
2022-07-30T00:55:59.108Z,16.65
2022-07-30T00:58:46.056Z,16.64
2022-07-30T01:01:33.730Z,16.44
2022-07-30T01:04:21.409Z,16.58
2022-07-30T01:07:08.374Z,16.71
2022-07-30T01:09:55.339Z,16.21
2022-07-30T01:12:43.086Z,15.80
2022-07-30T01:15:30.204Z,16.07
2022-07-30T01:18:18.162Z,16.07
2022-07-30T01:21:09.486Z,16.15
2022-07-30T01:24:03.692Z,16.40
2022-07-30T01:26:51.827Z,16.61
2022-07-30T01:29:43.360Z,16.54
2022-07-30T01:32:31.641Z,16.42
2022-07-30T01:35:21.875Z,16.45
2022-07-30T01:38:11.445Z,16.21
2022-07-30T01:40:59.352Z,16.06
2022-07-30T01:43:47.637Z,16.05
2022-07-30T01:46:35.184Z,16.09
2022-07-30T01:49:24.108Z,16.25
2022-07-30T01:52:12.384Z,15.96
2022-07-30T01:55:02.248Z,15.94
2022-07-30T01:57:50.287Z,16.23
2022-07-30T02:00:40.188Z,16.61
2022-07-30T02:03:27.766Z,16.74
2022-07-30T02:06:21.297Z,16.43
2022-07-30T02:09:11.046Z,16.56
2022-07-30T02:12:18.939Z,16.56
2022-07-30T02:15:17.455Z,16.68
2022-07-30T02:18:16.915Z,16.91
2022-07-30T02:21:07.531Z,16.68
2022-07-30T02:23:56.489Z,16.24
2022-07-30T02:26:46.391Z,16.32
2022-07-30T02:29:35.706Z,16.15
2022-07-30T02:32:24.709Z,16.09
2022-07-30T02:35:20.130Z,16.39
2022-07-30T02:38:09.275Z,16.54
2022-07-30T02:40:59.300Z,16.33
2022-07-30T02:43:48.282Z,16.70
2022-07-30T02:46:37.956Z,16.76
2022-07-30T02:49:27.870Z,17.00
2022-07-30T02:52:16.527Z,16.56
2022-07-30T02:55:05.230Z,16.68
2022-07-30T02:57:54.033Z,16.58
2022-07-30T03:00:42.808Z,16.54
2022-07-30T03:03:30.859Z,16.30
2022-07-30T03:06:20.004Z,16.28
2022-07-30T03:09:07.926Z,16.38
2022-07-30T03:11:56.220Z,16.08
2022-07-30T03:14:43.481Z,16.07
2022-07-30T03:17:38.228Z,16.10
2022-07-30T03:20:29.737Z,15.85
2022-07-30T03:23:19.475Z,16.31
2022-07-30T03:26:08.745Z,16.50
2022-07-30T03:28:57.169Z,16.53
2022-07-30T03:31:45.086Z,16.47
2022-07-30T03:34:35.007Z,16.07
2022-07-30T03:37:22.275Z,16.28
2022-07-30T03:40:09.941Z,16.22
2022-07-30T03:42:57.341Z,16.22
2022-07-30T03:45:45.577Z,16.75
2022-07-30T03:48:34.923Z,16.32
2022-07-30T03:51:22.271Z,16.54
2022-07-30T03:54:13.766Z,16.67
2022-07-30T03:57:03.027Z,16.69
2022-07-30T03:59:51.843Z,16.30
2022-07-30T04:02:46.423Z,16.41
2022-07-30T04:05:41.342Z,16.55
2022-07-30T04:08:29.125Z,16.14
2022-07-30T04:11:16.187Z,16.18
2022-07-30T04:14:03.452Z,16.03
2022-07-30T04:16:59.474Z,16.34
2022-07-30T04:20:01.866Z,16.37
2022-07-30T04:22:50.250Z,16.26
2022-07-30T04:25:37.839Z,16.32
2022-07-30T04:28:27.042Z,16.20
2022-07-30T04:31:14.527Z,16.28
2022-07-30T04:34:04.617Z,16.36
2022-07-30T04:36:51.972Z,16.31
2022-07-30T04:39:38.954Z,16.26
2022-07-30T04:42:28.017Z,16.31
2022-07-30T04:45:15.166Z,16.45
2022-07-30T04:48:02.147Z,16.81
2022-07-30T04:50:51.435Z,16.78
2022-07-30T04:53:40.317Z,16.54
2022-07-30T04:56:30.730Z,16.60
2022-07-30T04:59:18.865Z,16.72
2022-07-30T05:02:08.698Z,16.74
2022-07-30T05:04:57.689Z,16.64
2022-07-30T05:07:47.190Z,16.83
2022-07-30T05:10:34.428Z,16.94
2022-07-30T05:13:22.316Z,17.26
2022-07-30T05:16:09.873Z,17.29
2022-07-30T05:18:56.914Z,16.96
2022-07-30T05:21:44.338Z,17.25
2022-07-30T05:24:31.366Z,17.19
2022-07-30T05:27:20.387Z,17.59
2022-07-30T05:30:08.315Z,18.09
2022-07-30T05:32:56.049Z,19.52
2022-07-30T05:35:43.261Z,19.57
2022-07-30T05:38:30.216Z,19.07
2022-07-30T05:41:24.557Z,20.16
2022-07-30T05:44:22.263Z,18.88
2022-07-30T05:47:10.997Z,18.31
2022-07-30T05:50:01.586Z,18.40
2022-07-30T05:52:51.659Z,18.72
2022-07-30T05:55:38.709Z,19.12
2022-07-30T05:58:25.661Z,17.97
2022-07-30T06:01:12.860Z,18.65
2022-07-30T06:03:59.934Z,19.30
2022-07-30T06:06:47.125Z,18.58
2022-07-30T06:09:37.104Z,18.74
2022-07-30T06:12:24.355Z,18.31
2022-07-30T06:15:11.619Z,18.95
2022-07-30T06:18:01.556Z,18.23
2022-07-30T06:20:51.825Z,18.03
2022-07-30T06:23:39.237Z,18.58
2022-07-30T06:26:26.257Z,19.56
2022-07-30T06:29:13.538Z,19.03
2022-07-30T06:32:00.730Z,18.93
2022-07-30T06:34:47.713Z,19.26
2022-07-30T06:38:04.900Z,19.23
2022-07-30T06:40:41.861Z,19.55
2022-07-30T06:43:28.931Z,19.66
2022-07-30T06:46:16.028Z,19.58
2022-07-30T06:49:03.857Z,19.13
2022-07-30T06:51:51.438Z,19.35
2022-07-30T06:54:38.545Z,19.47
2022-07-30T06:57:25.708Z,19.18
2022-07-30T07:00:13.119Z,19.98
2022-07-30T07:03:00.179Z,19.74
2022-07-30T07:05:47.347Z,19.67
2022-07-30T07:08:38.920Z,19.70
2022-07-30T07:11:26.064Z,20.05
2022-07-30T07:14:13.087Z,20.65
2022-07-30T07:17:00.339Z,20.53
2022-07-30T07:20:01.632Z,21.39
2022-07-30T07:22:49.606Z,21.46
2022-07-30T07:25:36.841Z,21.46
2022-07-30T07:28:33.312Z,20.75
2022-07-30T07:32:05.618Z,20.45
2022-07-30T07:34:28.128Z,21.29
2022-07-30T07:37:16.093Z,21.45
2022-07-30T07:40:04.178Z,21.63
2022-07-30T07:42:51.264Z,21.49
2022-07-30T07:45:39.298Z,21.29
2022-07-30T07:48:26.371Z,21.02
2022-07-30T07:51:13.347Z,21.67
2022-07-30T07:54:20.492Z,22.96
2022-07-30T07:57:10.380Z,21.74
2022-07-30T07:59:58.846Z,22.23
2022-07-30T08:02:46.772Z,22.22
2022-07-30T08:05:58.192Z,22.27
2022-07-30T08:08:41.239Z,23.15
2022-07-30T08:11:28.927Z,23.05
2022-07-30T08:14:15.941Z,22.26
2022-07-30T08:17:03.210Z,21.60
2022-07-30T08:19:51.047Z,22.70
2022-07-30T08:22:38.097Z,22.02
2022-07-30T08:25:25.542Z,22.50
2022-07-30T08:28:35.215Z,23.66
2022-07-30T08:31:19.742Z,22.39
2022-07-30T08:34:06.969Z,22.33
2022-07-30T08:36:54.068Z,22.33
2022-07-30T08:39:41.355Z,22.37
2022-07-30T08:42:29.290Z,22.57
2022-07-30T08:45:17.566Z,22.30
2022-07-30T08:48:13.675Z,22.91
2022-07-30T08:51:03.672Z,22.25
2022-07-30T08:53:51.318Z,23.13
2022-07-30T08:56:38.586Z,22.72
2022-07-30T08:59:59.410Z,23.44
2022-07-30T09:02:34.866Z,21.48
2022-07-30T09:05:22.014Z,21.05
2022-07-30T09:08:09.143Z,22.47
2022-07-30T09:10:56.410Z,23.23
2022-07-30T09:13:44.870Z,22.02
2022-07-30T09:16:32.128Z,21.42
2022-07-30T09:19:21.833Z,23.93
2022-07-30T09:22:08.795Z,22.67
2022-07-30T09:24:55.773Z,21.16
2022-07-30T09:27:50.289Z,23.36
2022-07-30T09:30:46.430Z,25.44
2022-07-30T09:33:36.570Z,24.07
2022-07-30T09:36:23.831Z,21.74
2022-07-30T09:39:11.142Z,21.41
2022-07-30T09:41:58.770Z,23.70
2022-07-30T09:44:46.946Z,23.63
2022-07-30T09:47:38.982Z,24.46
2022-07-30T09:50:30.468Z,24.60
2022-07-30T09:53:18.186Z,24.19
2022-07-30T09:56:31.572Z,24.26
2022-07-30T09:59:34.973Z,24.26
2022-07-30T10:02:31.960Z,24.06
2022-07-30T10:05:20.693Z,24.45
2022-07-30T10:08:16.730Z,24.44
2022-07-30T10:11:09.570Z,25.04
2022-07-30T10:13:59.304Z,24.13
2022-07-30T10:16:47.568Z,24.72
2022-07-30T10:19:40.034Z,24.82
2022-07-30T10:22:29.404Z,25.84
2022-07-30T10:25:23.080Z,24.73
2022-07-30T10:28:16.517Z,26.19
2022-07-30T10:31:08.290Z,26.52
2022-07-30T10:34:13.850Z,26.68
2022-07-30T10:37:04.734Z,25.27
2022-07-30T10:39:59.214Z,24.23
2022-07-30T10:42:54.833Z,23.63
2022-07-30T10:45:58.393Z,22.36
2022-07-30T10:48:48.220Z,22.76
2022-07-30T10:51:43.834Z,22.42
2022-07-30T10:54:33.652Z,25.45
2022-07-30T10:57:32.096Z,25.86
2022-07-30T11:00:20.051Z,23.96
2022-07-30T11:03:14.838Z,26.79
2022-07-30T11:06:24.585Z,25.93
2022-07-30T11:09:41.086Z,24.64
2022-07-30T11:12:47.405Z,24.34
2022-07-30T11:15:59.921Z,25.00
2022-07-30T11:19:56.542Z,24.54
2022-07-30T11:22:41.362Z,23.78
2022-07-30T11:25:50.051Z,23.59
2022-07-30T11:28:37.782Z,24.95
2022-07-30T11:31:36.983Z,24.88
2022-07-30T11:34:33.449Z,25.61
2022-07-30T11:37:22.179Z,27.19
2022-07-30T11:40:26.177Z,25.62
2022-07-30T11:43:36.295Z,25.41
2022-07-30T11:46:29.272Z,24.95
2022-07-30T11:49:17.044Z,24.36
2022-07-30T11:52:04.563Z,24.03
2022-07-30T11:54:55.715Z,26.42
2022-07-30T11:57:42.949Z,26.00
2022-07-30T12:00:39.040Z,23.97
2022-07-30T12:03:31.849Z,24.65
2022-07-30T12:06:19.979Z,23.63
2022-07-30T12:09:07.088Z,23.11
2022-07-30T12:11:57.781Z,23.44
2022-07-30T12:14:44.879Z,25.44
2022-07-30T12:17:44.986Z,27.39
2022-07-30T12:20:32.034Z,24.49
2022-07-30T12:23:21.867Z,23.03
2022-07-30T12:26:20.508Z,23.11
2022-07-30T12:29:11.716Z,24.98
2022-07-30T12:31:58.938Z,25.77
2022-07-30T12:34:55.981Z,25.80
2022-07-30T12:38:02.556Z,25.40
2022-07-30T12:40:58.534Z,23.77
2022-07-30T12:43:49.782Z,23.30
2022-07-30T12:46:41.628Z,25.68
2022-07-30T12:49:39.406Z,24.46
2022-07-30T12:52:35.968Z,25.81
2022-07-30T12:55:34.369Z,25.80
2022-07-30T12:58:21.353Z,25.41
2022-07-30T13:01:09.973Z,25.61
2022-07-30T13:04:05.523Z,26.79
2022-07-30T13:07:04.841Z,26.93
2022-07-30T13:10:10.201Z,25.32
2022-07-30T13:12:58.296Z,25.04
2022-07-30T13:15:56.358Z,26.65
2022-07-30T13:18:43.643Z,26.92
2022-07-30T13:21:30.751Z,26.60
2022-07-30T13:24:18.726Z,26.31
2022-07-30T13:27:06.063Z,27.15
2022-07-30T13:29:53.396Z,27.35
2022-07-30T13:32:40.455Z,26.34
2022-07-30T13:35:27.893Z,27.91
2022-07-30T13:38:15.709Z,28.40
2022-07-30T13:41:04.481Z,26.58
2022-07-30T13:43:51.489Z,28.56
2022-07-30T13:46:41.198Z,27.27
2022-07-30T13:49:28.573Z,26.36
2022-07-30T13:52:17.213Z,25.94
2022-07-30T13:55:04.467Z,26.19
2022-07-30T13:57:51.403Z,25.20
2022-07-30T14:00:38.984Z,24.36
2022-07-30T14:03:25.902Z,25.69
2022-07-30T14:06:12.971Z,27.41
2022-07-30T14:08:59.905Z,26.40
2022-07-30T14:11:46.917Z,25.48
2022-07-30T14:14:33.877Z,26.86
2022-07-30T14:17:20.808Z,28.19
2022-07-30T14:20:08.307Z,28.84
2022-07-30T14:22:55.420Z,27.88
2022-07-30T14:25:44.210Z,28.29
2022-07-30T14:28:31.176Z,27.37
2022-07-30T14:31:18.307Z,27.34
2022-07-30T14:34:05.489Z,26.69
2022-07-30T14:36:52.885Z,27.22
2022-07-30T14:39:40.032Z,25.50
2022-07-30T14:42:27.553Z,25.43
2022-07-30T14:45:14.674Z,24.80
2022-07-30T14:48:01.852Z,26.64
2022-07-30T14:51:12.360Z,27.11
2022-07-30T14:53:57.076Z,27.29
2022-07-30T14:56:44.150Z,26.64
2022-07-30T14:59:31.174Z,27.04
2022-07-30T15:02:18.273Z,26.70
2022-07-30T15:05:05.776Z,27.10
2022-07-30T15:07:52.718Z,26.72
2022-07-30T15:10:40.188Z,26.94
2022-07-30T15:13:29.302Z,27.11
2022-07-30T15:16:19.298Z,26.41
2022-07-30T15:19:06.221Z,25.80
2022-07-30T15:21:53.155Z,25.97
2022-07-30T15:24:40.201Z,25.96
2022-07-30T15:27:33.705Z,26.88
2022-07-30T15:30:21.607Z,26.55
2022-07-30T15:33:08.940Z,26.45
2022-07-30T15:35:56.184Z,26.85
2022-07-30T15:38:43.647Z,28.06
2022-07-30T15:41:33.882Z,28.06
2022-07-30T15:44:21.087Z,26.43
2022-07-30T15:47:11.511Z,26.13
2022-07-30T15:50:00.232Z,27.56
2022-07-30T15:52:47.389Z,27.28
2022-07-30T15:55:47.186Z,27.25
2022-07-30T15:58:36.156Z,26.34
2022-07-30T16:01:24.598Z,26.29
2022-07-30T16:04:19.400Z,25.70
2022-07-30T16:07:08.044Z,25.26
2022-07-30T16:09:55.080Z,25.66
2022-07-30T16:12:42.388Z,25.48
2022-07-30T16:15:29.649Z,25.86
2022-07-30T16:18:16.800Z,25.74
2022-07-30T16:21:04.001Z,25.82
2022-07-30T16:23:52.612Z,26.75
2022-07-30T16:26:39.780Z,26.35
2022-07-30T16:29:27.099Z,26.23
2022-07-30T16:32:14.480Z,26.02
2022-07-30T16:35:01.776Z,25.37
2022-07-30T16:37:48.869Z,25.62
2022-07-30T16:40:36.407Z,25.67
2022-07-30T16:43:23.438Z,25.99
2022-07-30T16:46:11.133Z,26.11
2022-07-30T16:48:58.355Z,25.76
2022-07-30T16:51:45.467Z,25.86
2022-07-30T16:54:32.768Z,25.62
2022-07-30T16:57:19.790Z,25.03
2022-07-30T17:00:08.602Z,24.99
2022-07-30T17:02:55.565Z,24.74
2022-07-30T17:05:45.277Z,24.78
2022-07-30T17:08:33.071Z,25.17
2022-07-30T17:11:46.168Z,25.42
2022-07-30T17:14:27.971Z,24.94
2022-07-30T17:17:14.930Z,24.72
2022-07-30T17:20:04.010Z,24.86
2022-07-30T17:22:51.034Z,24.65
2022-07-30T17:25:38.130Z,24.76
2022-07-30T17:28:26.810Z,24.56
2022-07-30T17:31:14.237Z,24.67
2022-07-30T17:34:01.159Z,25.52
2022-07-30T17:36:51.758Z,25.22
2022-07-30T17:40:27.526Z,24.91
2022-07-30T17:42:46.720Z,24.45
2022-07-30T17:45:35.676Z,24.52
2022-07-30T17:48:22.734Z,24.07
2022-07-30T17:51:10.141Z,24.15
2022-07-30T17:53:57.153Z,24.12
2022-07-30T17:56:44.868Z,24.18
2022-07-30T17:59:32.336Z,24.04
2022-07-30T18:02:20.095Z,24.27
2022-07-30T18:05:15.712Z,24.16
2022-07-30T18:08:02.719Z,24.15
2022-07-30T18:10:50.591Z,24.11
2022-07-30T18:13:37.634Z,24.04
2022-07-30T18:16:25.344Z,24.01
2022-07-30T18:19:22.807Z,24.05
2022-07-30T18:22:14.695Z,24.34
2022-07-30T18:25:02.299Z,23.98
2022-07-30T18:27:56.086Z,24.09
2022-07-30T18:30:43.179Z,23.95
2022-07-30T18:33:30.267Z,23.36
2022-07-30T18:36:17.321Z,23.45
2022-07-30T18:39:04.624Z,23.22
2022-07-30T18:41:51.681Z,23.10
2022-07-30T18:44:38.693Z,23.23
2022-07-30T18:47:25.951Z,23.47
2022-07-30T18:50:15.929Z,23.12
2022-07-30T18:53:15.364Z,22.78
2022-07-30T18:56:03.372Z,22.59
2022-07-30T18:58:50.992Z,22.52
2022-07-30T19:01:39.286Z,22.50
2022-07-30T19:04:26.879Z,22.65
2022-07-30T19:07:14.085Z,22.53
2022-07-30T19:10:01.584Z,22.70
2022-07-30T19:12:48.563Z,22.76
2022-07-30T19:15:36.177Z,22.66
2022-07-30T19:18:23.293Z,22.38
2022-07-30T19:21:14.070Z,21.79
2022-07-30T19:24:01.914Z,22.11
2022-07-30T19:26:49.306Z,22.60
2022-07-30T19:29:37.366Z,22.17
2022-07-30T19:32:26.221Z,22.36
2022-07-30T19:35:13.458Z,22.56
2022-07-30T19:38:01.787Z,22.03
2022-07-30T19:40:50.026Z,22.03
2022-07-30T19:43:37.745Z,21.84
2022-07-30T19:46:26.320Z,21.58
2022-07-30T19:49:13.428Z,21.89
2022-07-30T19:52:10.690Z,22.02
2022-07-30T19:55:30.509Z,22.06
2022-07-30T19:58:17.866Z,21.98
2022-07-30T20:01:08.515Z,21.88
2022-07-30T20:03:55.846Z,21.78
2022-07-30T20:06:49.187Z,21.85
2022-07-30T20:09:36.376Z,21.31
2022-07-30T20:12:24.492Z,20.90
2022-07-30T20:15:14.901Z,21.13
2022-07-30T20:18:01.983Z,21.53
2022-07-30T20:20:50.442Z,21.43
2022-07-30T20:23:38.106Z,21.16
2022-07-30T20:26:29.100Z,20.85
2022-07-30T20:29:19.264Z,20.64
2022-07-30T20:32:08.461Z,20.96
2022-07-30T20:34:55.631Z,21.08
2022-07-30T20:37:54.999Z,21.14
2022-07-30T20:40:46.745Z,20.87
2022-07-30T20:43:33.723Z,20.75
2022-07-30T20:46:35.107Z,20.69
2022-07-30T20:49:33.924Z,21.02
2022-07-30T20:52:22.320Z,20.67
2022-07-30T20:55:12.171Z,20.45
2022-07-30T20:58:13.786Z,19.77
2022-07-30T21:01:04.901Z,20.04
2022-07-30T21:03:51.913Z,20.23
2022-07-30T21:06:44.367Z,20.23
2022-07-30T21:09:52.286Z,20.27
2022-07-30T21:12:39.907Z,19.99
2022-07-30T21:15:26.974Z,19.57
2022-07-30T21:18:19.495Z,19.07
2022-07-30T21:21:07.887Z,18.99
2022-07-30T21:23:59.144Z,18.56
2022-07-30T21:26:49.045Z,19.23
2022-07-30T21:29:36.085Z,19.80
2022-07-30T21:32:25.604Z,20.06
2022-07-30T21:35:12.940Z,20.20
2022-07-30T21:38:02.396Z,19.99
2022-07-30T21:40:49.991Z,19.96
2022-07-30T21:43:37.002Z,19.68
2022-07-30T21:46:26.970Z,19.04
2022-07-30T21:49:13.968Z,19.74
2022-07-30T21:52:01.786Z,19.36
2022-07-30T21:54:50.499Z,19.58
2022-07-30T21:57:37.594Z,19.65
2022-07-30T22:01:00.970Z,19.73
2022-07-30T22:04:08.268Z,19.75
2022-07-30T22:06:56.151Z,19.82
2022-07-30T22:09:47.628Z,19.66
2022-07-30T22:12:34.621Z,19.91
2022-07-30T22:15:21.886Z,19.74
2022-07-30T22:18:12.627Z,19.51
2022-07-30T22:20:59.672Z,19.05
2022-07-30T22:23:56.707Z,19.34
2022-07-30T22:26:51.004Z,19.47
2022-07-30T22:29:38.761Z,18.68
2022-07-30T22:32:25.803Z,18.26
2022-07-30T22:38:22.935Z,18.25
2022-07-30T22:41:14.170Z,18.40
2022-07-30T22:44:01.281Z,18.41
2022-07-30T22:46:48.226Z,18.55
2022-07-30T22:49:45.684Z,18.56
2022-07-30T22:52:52.446Z,18.36
2022-07-30T22:55:45.972Z,17.75
2022-07-30T22:58:32.921Z,17.11
2022-07-30T23:01:19.872Z,17.34
2022-07-30T23:04:09.952Z,17.48
2022-07-30T23:06:57.034Z,16.68
2022-07-30T23:09:51.532Z,16.57
2022-07-30T23:12:32.860Z,18.36
2022-07-30T23:12:39.197Z,16.56
2022-07-30T23:15:26.461Z,16.76
2022-07-30T23:18:15.897Z,17.16
2022-07-30T23:21:03.205Z,17.49
2022-07-30T23:23:50.321Z,17.50
2022-07-30T23:26:37.280Z,17.41
2022-07-30T23:29:24.448Z,17.38
2022-07-30T23:32:11.478Z,17.08
2022-07-30T23:34:58.738Z,17.14
2022-07-30T23:37:48.010Z,17.49
2022-07-30T23:40:35.937Z,17.33
2022-07-30T23:43:22.851Z,17.12
2022-07-30T23:46:11.189Z,17.08
2022-07-30T23:48:58.669Z,17.02
2022-07-30T23:51:45.635Z,17.30
2022-07-30T23:54:32.628Z,16.73
2022-07-30T23:57:19.606Z,16.70
